Montevideo, Minnesota
Current Conditions -  °F | °C
As of 12:14 AM on Monday 26 Jan 2015 (Local Time) from KMVE Reporting Station
Overcast Overcast  
Wind Chill: 21°   Ceiling: 2800
Heat Index: 30°   Visibility: 10mi
Dew Point: 30°   Wind: 12mph
Humidity: 100%   Direction: 220°SW
Pressure: 29.87"   Gusts: NA
Location:  44.95°N, 95.72°W
Report Text: KMVE 260614Z AUTO 22010KT 10SM OVC028 M01/M01 A2987 RMK AO2
Loading
Personal Weather Stations






























Interactive Weather Map New forecast layout! Learn more

10-Day Weather Forecast

Advertisements
Track Severe Weather on mobile